sensor_id;sensor_type;location;lat;lon;timestamp;pressure;altitude;pressure_sealevel;temperature;humidity
4398;BME280;2213;49.720;7.296;2022-07-29T00:00:07;97937.56;;;20.65;78.69
4398;BME280;2213;49.720;7.296;2022-07-29T00:02:38;97940.16;;;20.59;78.73
4398;BME280;2213;49.720;7.296;2022-07-29T00:05:09;97943.09;;;20.58;78.79
4398;BME280;2213;49.720;7.296;2022-07-29T00:07:40;97938.00;;;20.56;78.93
4398;BME280;2213;49.720;7.296;2022-07-29T00:10:09;97929.97;;;20.51;78.96
4398;BME280;2213;49.720;7.296;2022-07-29T00:12:38;97933.16;;;20.48;79.30
4398;BME280;2213;49.720;7.296;2022-07-29T00:15:08;97930.47;;;20.43;79.22
4398;BME280;2213;49.720;7.296;2022-07-29T00:17:38;97925.59;;;20.35;79.77
4398;BME280;2213;49.720;7.296;2022-07-29T00:20:09;97929.31;;;20.34;80.01
4398;BME280;2213;49.720;7.296;2022-07-29T00:22:38;97926.28;;;20.26;80.43
4398;BME280;2213;49.720;7.296;2022-07-29T00:25:08;97930.50;;;20.22;80.91
4398;BME280;2213;49.720;7.296;2022-07-29T00:27:37;97920.69;;;20.22;81.32
4398;BME280;2213;49.720;7.296;2022-07-29T00:30:07;97917.47;;;20.20;81.09
4398;BME280;2213;49.720;7.296;2022-07-29T00:32:38;97917.72;;;20.19;80.86
4398;BME280;2213;49.720;7.296;2022-07-29T00:35:08;97919.56;;;20.18;81.12
4398;BME280;2213;49.720;7.296;2022-07-29T00:37:54;97921.69;;;20.16;81.29
4398;BME280;2213;49.720;7.296;2022-07-29T00:40:22;97915.78;;;20.09;81.54
4398;BME280;2213;49.720;7.296;2022-07-29T00:42:52;97909.59;;;20.03;82.46
4398;BME280;2213;49.720;7.296;2022-07-29T00:45:21;97910.91;;;20.01;82.38
4398;BME280;2213;49.720;7.296;2022-07-29T00:47:52;97910.31;;;19.94;83.35
4398;BME280;2213;49.720;7.296;2022-07-29T00:50:20;97897.03;;;19.94;83.48
4398;BME280;2213;49.720;7.296;2022-07-29T00:52:50;97901.31;;;19.95;83.77
4398;BME280;2213;49.720;7.296;2022-07-29T00:55:20;97901.22;;;19.90;83.66
4398;BME280;2213;49.720;7.296;2022-07-29T00:57:49;97893.25;;;19.85;84.33
4398;BME280;2213;49.720;7.296;2022-07-29T01:00:24;97891.25;;;19.75;84.72
4398;BME280;2213;49.720;7.296;2022-07-29T01:02:55;97902.63;;;19.71;85.21
4398;BME280;2213;49.720;7.296;2022-07-29T01:05:26;97895.72;;;19.70;84.91
4398;BME280;2213;49.720;7.296;2022-07-29T01:08:16;97889.28;;;19.66;85.06
4398;BME280;2213;49.720;7.296;2022-07-29T01:10:46;97892.88;;;19.54;85.56
4398;BME280;2213;49.720;7.296;2022-07-29T01:13:16;97887.56;;;19.54;85.34
4398;BME280;2213;49.720;7.296;2022-07-29T01:15:52;97883.88;;;19.55;85.28
4398;BME280;2213;49.720;7.296;2022-07-29T01:18:33;97888.66;;;19.53;85.48
4398;BME280;2213;49.720;7.296;2022-07-29T01:21:32;97880.38;;;19.50;85.22
4398;BME280;2213;49.720;7.296;2022-07-29T01:24:33;97878.97;;;19.42;85.40
4398;BME280;2213;49.720;7.296;2022-07-29T01:27:32;97884.13;;;19.32;85.76
4398;BME280;2213;49.720;7.296;2022-07-29T01:30:10;97879.84;;;19.31;85.88
4398;BME280;2213;49.720;7.296;2022-07-29T01:32:47;97883.50;;;19.25;86.47
4398;BME280;2213;49.720;7.296;2022-07-29T01:35:24;97900.84;;;19.16;86.73
4398;BME280;2213;49.720;7.296;2022-07-29T01:38:07;97890.75;;;19.13;86.93
4398;BME280;2213;49.720;7.296;2022-07-29T01:40:43;97895.91;;;19.03;87.70
4398;BME280;2213;49.720;7.296;2022-07-29T01:43:18;97890.00;;;18.96;88.11
4398;BME280;2213;49.720;7.296;2022-07-29T01:45:57;97894.34;;;19.02;88.72
4398;BME280;2213;49.720;7.296;2022-07-29T01:48:38;97889.50;;;18.99;88.31
4398;BME280;2213;49.720;7.296;2022-07-29T01:51:14;97890.56;;;18.98;87.85
4398;BME280;2213;49.720;7.296;2022-07-29T01:53:54;97892.41;;;18.97;87.97
4398;BME280;2213;49.720;7.296;2022-07-29T01:56:25;97892.91;;;18.94;88.05
4398;BME280;2213;49.720;7.296;2022-07-29T01:58:59;97899.97;;;18.89;88.38
4398;BME280;2213;49.720;7.296;2022-07-29T02:01:33;97890.81;;;18.80;88.92
4398;BME280;2213;49.720;7.296;2022-07-29T02:04:07;97892.44;;;18.81;89.23
4398;BME280;2213;49.720;7.296;2022-07-29T02:07:00;97899.31;;;18.82;89.31
4398;BME280;2213;49.720;7.296;2022-07-29T02:09:33;97897.59;;;18.71;89.64
4398;BME280;2213;49.720;7.296;2022-07-29T02:12:06;97896.63;;;18.60;90.43
4398;BME280;2213;49.720;7.296;2022-07-29T02:14:40;97899.50;;;18.58;90.63
4398;BME280;2213;49.720;7.296;2022-07-29T02:17:13;97903.44;;;18.56;90.84
4398;BME280;2213;49.720;7.296;2022-07-29T02:19:47;97895.19;;;18.52;91.26
4398;BME280;2213;49.720;7.296;2022-07-29T02:22:19;97891.03;;;18.56;91.51
4398;BME280;2213;49.720;7.296;2022-07-29T02:24:53;97883.63;;;18.58;91.12
4398;BME280;2213;49.720;7.296;2022-07-29T02:27:23;97877.69;;;18.51;91.10
4398;BME280;2213;49.720;7.296;2022-07-29T02:29:56;97896.13;;;18.46;91.76
4398;BME280;2213;49.720;7.296;2022-07-29T02:32:29;97889.44;;;18.44;91.89
4398;BME280;2213;49.720;7.296;2022-07-29T02:35:01;97894.25;;;18.47;91.98
4398;BME280;2213;49.720;7.296;2022-07-29T02:37:32;97888.72;;;18.48;91.54
4398;BME280;2213;49.720;7.296;2022-07-29T02:40:02;97891.78;;;18.40;92.00
4398;BME280;2213;49.720;7.296;2022-07-29T02:42:36;97892.75;;;18.34;92.54
4398;BME280;2213;49.720;7.296;2022-07-29T02:45:08;97893.53;;;18.35;92.58
4398;BME280;2213;49.720;7.296;2022-07-29T02:47:43;97891.06;;;18.28;93.05
4398;BME280;2213;49.720;7.296;2022-07-29T02:50:15;97896.34;;;18.28;93.13
4398;BME280;2213;49.720;7.296;2022-07-29T02:52:54;97891.28;;;18.27;93.18
4398;BME280;2213;49.720;7.296;2022-07-29T02:55:31;97892.91;;;18.28;92.96
4398;BME280;2213;49.720;7.296;2022-07-29T02:58:05;97893.13;;;18.26;93.08
4398;BME280;2213;49.720;7.296;2022-07-29T03:00:39;97893.59;;;18.23;93.33
4398;BME280;2213;49.720;7.296;2022-07-29T03:03:13;97899.88;;;18.17;94.07
4398;BME280;2213;49.720;7.296;2022-07-29T03:05:43;97902.19;;;18.14;94.68
4398;BME280;2213;49.720;7.296;2022-07-29T03:08:12;97897.22;;;18.17;95.07
4398;BME280;2213;49.720;7.296;2022-07-29T03:10:45;97895.38;;;18.18;94.87
4398;BME280;2213;49.720;7.296;2022-07-29T03:13:15;97899.06;;;18.17;94.83
4398;BME280;2213;49.720;7.296;2022-07-29T03:15:45;97898.03;;;18.18;94.93
4398;BME280;2213;49.720;7.296;2022-07-29T03:18:17;97896.75;;;18.20;95.05
4398;BME280;2213;49.720;7.296;2022-07-29T03:20:46;97903.66;;;18.21;94.58
4398;BME280;2213;49.720;7.296;2022-07-29T03:23:19;97907.66;;;18.24;94.58
4398;BME280;2213;49.720;7.296;2022-07-29T03:25:52;97895.44;;;18.23;94.70
4398;BME280;2213;49.720;7.296;2022-07-29T03:28:24;97896.25;;;18.23;95.07
4398;BME280;2213;49.720;7.296;2022-07-29T03:30:54;97906.84;;;18.23;95.16
4398;BME280;2213;49.720;7.296;2022-07-29T03:33:27;97899.47;;;18.25;94.80
4398;BME280;2213;49.720;7.296;2022-07-29T03:35:57;97899.47;;;18.25;94.52
4398;BME280;2213;49.720;7.296;2022-07-29T03:38:29;97894.97;;;18.26;94.61
4398;BME280;2213;49.720;7.296;2022-07-29T03:41:03;97899.47;;;18.25;94.64
4398;BME280;2213;49.720;7.296;2022-07-29T03:43:38;97904.19;;;18.23;94.63
4398;BME280;2213;49.720;7.296;2022-07-29T03:46:17;97900.03;;;18.27;94.49
4398;BME280;2213;49.720;7.296;2022-07-29T03:48:56;97907.97;;;18.27;94.48
4398;BME280;2213;49.720;7.296;2022-07-29T03:51:27;97913.75;;;18.24;94.32
4398;BME280;2213;49.720;7.296;2022-07-29T03:54:01;97910.63;;;18.27;94.53
4398;BME280;2213;49.720;7.296;2022-07-29T03:56:40;97909.00;;;18.26;94.57
4398;BME280;2213;49.720;7.296;2022-07-29T03:59:12;97905.56;;;18.26;94.71
4398;BME280;2213;49.720;7.296;2022-07-29T04:01:44;97905.56;;;18.26;94.72
4398;BME280;2213;49.720;7.296;2022-07-29T04:04:16;97905.00;;;18.24;94.78
4398;BME280;2213;49.720;7.296;2022-07-29T04:06:46;97901.06;;;18.26;94.54
4398;BME280;2213;49.720;7.296;2022-07-29T04:09:21;97892.09;;;18.27;94.21
4398;BME280;2213;49.720;7.296;2022-07-29T04:11:51;97891.59;;;18.30;93.98
4398;BME280;2213;49.720;7.296;2022-07-29T04:14:28;97899.31;;;18.32;94.02
4398;BME280;2213;49.720;7.296;2022-07-29T04:16:57;97907.81;;;18.34;93.57
4398;BME280;2213;49.720;7.296;2022-07-29T04:19:28;97905.75;;;18.36;93.75
4398;BME280;2213;49.720;7.296;2022-07-29T04:21:56;97908.13;;;18.37;93.71
4398;BME280;2213;49.720;7.296;2022-07-29T04:24:25;97904.47;;;18.38;94.01
4398;BME280;2213;49.720;7.296;2022-07-29T04:26:55;97902.63;;;18.39;93.92
4398;BME280;2213;49.720;7.296;2022-07-29T04:29:24;97903.97;;;18.41;94.10
4398;BME280;2213;49.720;7.296;2022-07-29T04:31:52;97916.19;;;18.42;94.27
4398;BME280;2213;49.720;7.296;2022-07-29T04:34:21;97911.91;;;18.41;94.60
4398;BME280;2213;49.720;7.296;2022-07-29T04:36:55;97920.66;;;18.42;94.38
4398;BME280;2213;49.720;7.296;2022-07-29T04:39:24;97910.09;;;18.42;94.32
4398;BME280;2213;49.720;7.296;2022-07-29T04:41:56;97922.50;;;18.41;94.37
4398;BME280;2213;49.720;7.296;2022-07-29T04:44:25;97911.91;;;18.41;94.56
4398;BME280;2213;49.720;7.296;2022-07-29T04:46:57;97919.88;;;18.41;94.56
4398;BME280;2213;49.720;7.296;2022-07-29T04:49:26;97921.47;;;18.42;94.59
4398;BME280;2213;49.720;7.296;2022-07-29T04:51:56;97915.94;;;18.44;94.54
4398;BME280;2213;49.720;7.296;2022-07-29T04:54:25;97921.00;;;18.45;94.34
4398;BME280;2213;49.720;7.296;2022-07-29T04:56:55;97922.03;;;18.44;94.32
4398;BME280;2213;49.720;7.296;2022-07-29T04:59:25;97923.66;;;18.45;94.41
4398;BME280;2213;49.720;7.296;2022-07-29T05:01:54;97925.81;;;18.48;94.42
4398;BME280;2213;49.720;7.296;2022-07-29T05:04:24;97917.88;;;18.48;94.44
4398;BME280;2213;49.720;7.296;2022-07-29T05:06:54;97923.16;;;18.48;94.96
4398;BME280;2213;49.720;7.296;2022-07-29T05:09:24;97928.00;;;18.51;94.94
4398;BME280;2213;49.720;7.296;2022-07-29T05:11:52;97934.34;;;18.50;94.85
4398;BME280;2213;49.720;7.296;2022-07-29T05:14:21;97922.47;;;18.53;94.83
4398;BME280;2213;49.720;7.296;2022-07-29T05:16:50;97930.97;;;18.55;94.87
4398;BME280;2213;49.720;7.296;2022-07-29T05:19:20;97930.97;;;18.55;94.91
4398;BME280;2213;49.720;7.296;2022-07-29T05:21:49;97928.88;;;18.57;94.94
4398;BME280;2213;49.720;7.296;2022-07-29T05:24:19;97927.03;;;18.57;95.24
4398;BME280;2213;49.720;7.296;2022-07-29T05:26:48;97926.31;;;18.62;95.15
4398;BME280;2213;49.720;7.296;2022-07-29T05:29:17;97939.34;;;18.64;94.96
4398;BME280;2213;49.720;7.296;2022-07-29T05:32:06;97938.84;;;18.67;95.09
4398;BME280;2213;49.720;7.296;2022-07-29T05:34:35;97937.34;;;18.71;95.08
4398;BME280;2213;49.720;7.296;2022-07-29T05:37:18;97926.00;;;18.75;95.01
4398;BME280;2213;49.720;7.296;2022-07-29T05:39:48;97935.31;;;18.78;94.69
4398;BME280;2213;49.720;7.296;2022-07-29T05:42:23;97941.72;;;18.82;94.03
4398;BME280;2213;49.720;7.296;2022-07-29T05:44:53;97928.56;;;18.87;94.10
4398;BME280;2213;49.720;7.296;2022-07-29T05:47:23;97932.06;;;18.92;94.02
4398;BME280;2213;49.720;7.296;2022-07-29T05:49:52;97935.63;;;18.98;94.14
4398;BME280;2213;49.720;7.296;2022-07-29T05:52:21;97928.53;;;19.03;93.97
4398;BME280;2213;49.720;7.296;2022-07-29T05:54:51;97922.50;;;19.08;93.88
4398;BME280;2213;49.720;7.296;2022-07-29T05:57:22;97916.72;;;19.11;93.81
4398;BME280;2213;49.720;7.296;2022-07-29T05:59:51;97919.19;;;19.18;93.23
4398;BME280;2213;49.720;7.296;2022-07-29T06:02:21;97917.38;;;19.23;92.52
4398;BME280;2213;49.720;7.296;2022-07-29T06:04:50;97920.13;;;19.28;92.03
4398;BME280;2213;49.720;7.296;2022-07-29T06:07:18;97920.97;;;19.34;91.59
4398;BME280;2213;49.720;7.296;2022-07-29T06:09:47;97923.72;;;19.39;91.23
4398;BME280;2213;49.720;7.296;2022-07-29T06:12:18;97925.09;;;19.41;91.15
4398;BME280;2213;49.720;7.296;2022-07-29T06:14:47;97919.88;;;19.46;91.41
4398;BME280;2213;49.720;7.296;2022-07-29T06:17:20;97914.28;;;19.48;91.57
4398;BME280;2213;49.720;7.296;2022-07-29T06:19:49;97922.56;;;19.51;91.92
4398;BME280;2213;49.720;7.296;2022-07-29T06:22:18;97921.03;;;19.55;92.39
4398;BME280;2213;49.720;7.296;2022-07-29T06:24:47;97923.97;;;19.59;92.46
4398;BME280;2213;49.720;7.296;2022-07-29T06:27:17;97920.03;;;19.62;92.34
4398;BME280;2213;49.720;7.296;2022-07-29T06:29:46;97924.84;;;19.65;92.40
4398;BME280;2213;49.720;7.296;2022-07-29T06:32:15;97922.25;;;19.70;92.06
4398;BME280;2213;49.720;7.296;2022-07-29T06:34:44;97924.41;;;19.73;92.02
4398;BME280;2213;49.720;7.296;2022-07-29T06:37:15;97933.47;;;19.77;92.22
4398;BME280;2213;49.720;7.296;2022-07-29T06:39:45;97935.63;;;19.80;91.96
4398;BME280;2213;49.720;7.296;2022-07-29T06:42:15;97934.31;;;19.82;92.27
4398;BME280;2213;49.720;7.296;2022-07-29T06:44:44;97935.44;;;19.86;92.49
4398;BME280;2213;49.720;7.296;2022-07-29T06:47:14;97945.31;;;19.91;92.58
4398;BME280;2213;49.720;7.296;2022-07-29T06:49:42;97952.53;;;19.95;92.33
4398;BME280;2213;49.720;7.296;2022-07-29T06:52:11;97950.19;;;19.99;92.38
4398;BME280;2213;49.720;7.296;2022-07-29T06:54:40;97944.13;;;20.03;92.02
4398;BME280;2213;49.720;7.296;2022-07-29T06:57:15;97952.94;;;20.09;91.47
4398;BME280;2213;49.720;7.296;2022-07-29T06:59:47;97945.03;;;20.14;90.41
4398;BME280;2213;49.720;7.296;2022-07-29T07:02:16;97948.78;;;20.18;89.68
4398;BME280;2213;49.720;7.296;2022-07-29T07:04:44;97949.91;;;20.22;89.02
4398;BME280;2213;49.720;7.296;2022-07-29T07:07:15;97958.16;;;20.26;88.86
4398;BME280;2213;49.720;7.296;2022-07-29T07:09:44;97960.09;;;20.30;87.92
4398;BME280;2213;49.720;7.296;2022-07-29T07:12:13;97955.88;;;20.34;87.02
4398;BME280;2213;49.720;7.296;2022-07-29T07:14:42;97967.59;;;20.38;85.93
4398;BME280;2213;49.720;7.296;2022-07-29T07:17:13;97966.31;;;20.41;83.86
4398;BME280;2213;49.720;7.296;2022-07-29T07:19:42;97966.59;;;20.44;82.40
4398;BME280;2213;49.720;7.296;2022-07-29T07:22:11;97970.63;;;20.47;79.60
4398;BME280;2213;49.720;7.296;2022-07-29T07:24:40;97956.56;;;20.51;78.81
4398;BME280;2213;49.720;7.296;2022-07-29T07:27:09;97965.63;;;20.55;76.48
4398;BME280;2213;49.720;7.296;2022-07-29T07:29:38;97962.22;;;20.60;76.06
4398;BME280;2213;49.720;7.296;2022-07-29T07:32:10;97967.59;;;20.65;76.38
4398;BME280;2213;49.720;7.296;2022-07-29T07:34:41;97967.63;;;20.70;76.07
4398;BME280;2213;49.720;7.296;2022-07-29T07:37:10;97959.94;;;20.74;75.65
4398;BME280;2213;49.720;7.296;2022-07-29T07:39:38;97967.41;;;20.77;72.12
4398;BME280;2213;49.720;7.296;2022-07-29T07:42:08;97966.66;;;20.81;69.66
4398;BME280;2213;49.720;7.296;2022-07-29T07:44:38;97959.50;;;20.87;69.70
4398;BME280;2213;49.720;7.296;2022-07-29T07:47:27;97965.69;;;20.97;69.19
4398;BME280;2213;49.720;7.296;2022-07-29T07:50:02;97965.75;;;21.02;69.02
4398;BME280;2213;49.720;7.296;2022-07-29T07:52:31;97955.94;;;21.08;67.73
4398;BME280;2213;49.720;7.296;2022-07-29T07:55:00;97957.59;;;21.14;67.43
4398;BME280;2213;49.720;7.296;2022-07-29T07:57:29;97957.13;;;21.22;67.90
4398;BME280;2213;49.720;7.296;2022-07-29T07:59:57;97963.00;;;21.29;68.16
4398;BME280;2213;49.720;7.296;2022-07-29T08:02:26;97960.91;;;21.36;67.63
4398;BME280;2213;49.720;7.296;2022-07-29T08:04:55;97957.22;;;21.42;66.31
4398;BME280;2213;49.720;7.296;2022-07-29T08:07:25;97958.06;;;21.48;65.76
4398;BME280;2213;49.720;7.296;2022-07-29T08:09:54;97962.06;;;21.55;65.50
4398;BME280;2213;49.720;7.296;2022-07-29T08:12:23;97953.06;;;21.62;65.44
4398;BME280;2213;49.720;7.296;2022-07-29T08:14:52;97951.50;;;21.66;64.83
4398;BME280;2213;49.720;7.296;2022-07-29T08:17:21;97952.53;;;21.70;65.02
4398;BME280;2213;49.720;7.296;2022-07-29T08:19:50;97942.97;;;21.74;65.21
4398;BME280;2213;49.720;7.296;2022-07-29T08:22:19;97942.75;;;21.80;65.71
4398;BME280;2213;49.720;7.296;2022-07-29T08:24:49;97945.16;;;21.87;65.12
4398;BME280;2213;49.720;7.296;2022-07-29T08:27:23;97945.22;;;21.92;65.99
4398;BME280;2213;49.720;7.296;2022-07-29T08:30:11;97939.91;;;22.02;65.80
4398;BME280;2213;49.720;7.296;2022-07-29T08:32:39;97958.59;;;22.07;65.45
4398;BME280;2213;49.720;7.296;2022-07-29T08:35:24;97949.53;;;22.13;65.58
4398;BME280;2213;49.720;7.296;2022-07-29T08:37:53;97952.75;;;22.20;65.12
4398;BME280;2213;49.720;7.296;2022-07-29T08:40:25;97949.28;;;22.25;65.05
4398;BME280;2213;49.720;7.296;2022-07-29T08:42:58;97953.56;;;22.31;64.13
4398;BME280;2213;49.720;7.296;2022-07-29T08:45:29;97958.63;;;22.37;63.76
4398;BME280;2213;49.720;7.296;2022-07-29T08:47:58;97943.16;;;22.39;63.10
4398;BME280;2213;49.720;7.296;2022-07-29T08:50:27;97947.97;;;22.47;63.79
4398;BME280;2213;49.720;7.296;2022-07-29T08:52:56;97956.00;;;22.52;63.98
4398;BME280;2213;49.720;7.296;2022-07-29T08:55:28;97961.31;;;22.57;63.95
4398;BME280;2213;49.720;7.296;2022-07-29T08:57:58;97957.56;;;22.64;64.26
4398;BME280;2213;49.720;7.296;2022-07-29T09:00:28;97955.22;;;22.72;63.37
4398;BME280;2213;49.720;7.296;2022-07-29T09:02:59;97959.22;;;22.80;63.47
4398;BME280;2213;49.720;7.296;2022-07-29T09:05:29;97958.66;;;22.88;62.81
4398;BME280;2213;49.720;7.296;2022-07-29T09:08:01;97953.84;;;22.95;62.22
4398;BME280;2213;49.720;7.296;2022-07-29T09:10:32;97952.00;;;23.00;61.32
4398;BME280;2213;49.720;7.296;2022-07-29T09:13:00;97958.41;;;23.04;61.54
4398;BME280;2213;49.720;7.296;2022-07-29T09:15:30;97949.31;;;23.11;61.61
4398;BME280;2213;49.720;7.296;2022-07-29T09:17:59;97950.38;;;23.15;60.79
4398;BME280;2213;49.720;7.296;2022-07-29T09:20:29;97946.38;;;23.17;60.56
4398;BME280;2213;49.720;7.296;2022-07-29T09:23:18;97943.66;;;23.22;59.85
4398;BME280;2213;49.720;7.296;2022-07-29T09:25:52;97949.00;;;23.27;59.92
4398;BME280;2213;49.720;7.296;2022-07-29T09:28:20;97948.72;;;23.34;59.75
4398;BME280;2213;49.720;7.296;2022-07-29T09:30:52;97949.78;;;23.43;58.98
4398;BME280;2213;49.720;7.296;2022-07-29T09:33:23;97947.91;;;23.48;59.38
4398;BME280;2213;49.720;7.296;2022-07-29T09:36:00;97955.38;;;23.57;59.70
4398;BME280;2213;49.720;7.296;2022-07-29T09:38:32;97943.03;;;23.61;59.72
4398;BME280;2213;49.720;7.296;2022-07-29T09:41:04;97946.22;;;23.68;59.47
4398;BME280;2213;49.720;7.296;2022-07-29T09:43:35;97939.81;;;23.74;58.97
4398;BME280;2213;49.720;7.296;2022-07-29T09:46:11;97945.09;;;23.79;58.48
4398;BME280;2213;49.720;7.296;2022-07-29T09:48:39;97945.34;;;23.87;58.28
4398;BME280;2213;49.720;7.296;2022-07-29T09:51:17;97946.16;;;23.88;56.76
4398;BME280;2213;49.720;7.296;2022-07-29T09:53:54;97937.03;;;23.94;57.12
4398;BME280;2213;49.720;7.296;2022-07-29T09:56:39;97941.78;;;24.02;57.12
4398;BME280;2213;49.720;7.296;2022-07-29T09:59:09;97939.88;;;24.08;57.20
4398;BME280;2213;49.720;7.296;2022-07-29T10:01:38;97934.78;;;24.11;56.65
4398;BME280;2213;49.720;7.296;2022-07-29T10:04:07;97941.16;;;24.20;56.79
4398;BME280;2213;49.720;7.296;2022-07-29T10:06:55;97936.88;;;24.24;56.51
4398;BME280;2213;49.720;7.296;2022-07-29T10:09:31;97935.19;;;24.33;57.17
4398;BME280;2213;49.720;7.296;2022-07-29T10:12:26;97932.47;;;24.43;56.70
4398;BME280;2213;49.720;7.296;2022-07-29T10:14:55;97932.41;;;24.48;55.82
4398;BME280;2213;49.720;7.296;2022-07-29T10:17:24;97942.28;;;24.53;55.24
4398;BME280;2213;49.720;7.296;2022-07-29T10:19:53;97937.19;;;24.57;54.63
4398;BME280;2213;49.720;7.296;2022-07-29T10:22:23;97923.75;;;24.62;54.55
4398;BME280;2213;49.720;7.296;2022-07-29T10:25:12;97925.31;;;24.68;54.57
4398;BME280;2213;49.720;7.296;2022-07-29T10:27:43;97925.31;;;24.68;53.56
4398;BME280;2213;49.720;7.296;2022-07-29T10:30:14;97930.63;;;24.73;54.19
4398;BME280;2213;49.720;7.296;2022-07-29T10:32:57;97927.09;;;24.77;53.62
4398;BME280;2213;49.720;7.296;2022-07-29T10:35:43;97925.75;;;24.80;53.71
4398;BME280;2213;49.720;7.296;2022-07-29T10:38:42;97924.88;;;24.89;53.37
4398;BME280;2213;49.720;7.296;2022-07-29T10:41:36;97915.44;;;24.97;53.89
4398;BME280;2213;49.720;7.296;2022-07-29T10:44:18;97927.06;;;25.11;54.56
4398;BME280;2213;49.720;7.296;2022-07-29T10:47:19;97920.00;;;25.20;53.82
4398;BME280;2213;49.720;7.296;2022-07-29T10:49:57;97914.56;;;25.30;53.25
4398;BME280;2213;49.720;7.296;2022-07-29T10:52:53;97907.50;;;25.39;52.40
4398;BME280;2213;49.720;7.296;2022-07-29T10:55:35;97905.53;;;25.45;51.91
4398;BME280;2213;49.720;7.296;2022-07-29T10:58:15;97901.78;;;25.51;51.98
4398;BME280;2213;49.720;7.296;2022-07-29T11:00:49;97897.41;;;25.55;51.14
4398;BME280;2213;49.720;7.296;2022-07-29T11:03:44;97901.63;;;25.61;50.45
4398;BME280;2213;49.720;7.296;2022-07-29T11:06:18;97897.28;;;25.65;49.76
4398;BME280;2213;49.720;7.296;2022-07-29T11:09:16;97892.66;;;25.71;49.88
4398;BME280;2213;49.720;7.296;2022-07-29T11:12:02;97893.69;;;25.75;49.38
4398;BME280;2213;49.720;7.296;2022-07-29T11:14:57;97887.66;;;25.83;49.96
4398;BME280;2213;49.720;7.296;2022-07-29T11:18:06;97893.75;;;25.88;49.21
4398;BME280;2213;49.720;7.296;2022-07-29T11:20:47;97891.22;;;25.97;48.85
4398;BME280;2213;49.720;7.296;2022-07-29T11:23:24;97895.34;;;26.08;48.14
4398;BME280;2213;49.720;7.296;2022-07-29T11:26:17;97891.75;;;26.18;49.33
4398;BME280;2213;49.720;7.296;2022-07-29T11:29:19;97884.34;;;26.28;48.64
4398;BME280;2213;49.720;7.296;2022-07-29T11:31:52;97877.72;;;26.39;48.26
4398;BME280;2213;49.720;7.296;2022-07-29T11:34:27;97881.03;;;26.50;48.69
4398;BME280;2213;49.720;7.296;2022-07-29T11:37:23;97872.63;;;26.57;47.95
4398;BME280;2213;49.720;7.296;2022-07-29T11:40:16;97875.44;;;26.65;47.53
4398;BME280;2213;49.720;7.296;2022-07-29T11:42:49;97871.25;;;26.73;47.42
4398;BME280;2213;49.720;7.296;2022-07-29T11:45:25;97875.47;;;26.79;47.79
4398;BME280;2213;49.720;7.296;2022-07-29T11:48:17;97875.38;;;26.84;47.28
4398;BME280;2213;49.720;7.296;2022-07-29T11:51:11;97879.06;;;26.88;47.00
4398;BME280;2213;49.720;7.296;2022-07-29T11:53:39;97882.47;;;26.93;46.55
4398;BME280;2213;49.720;7.296;2022-07-29T11:56:14;97871.44;;;26.95;46.24
4398;BME280;2213;49.720;7.296;2022-07-29T11:59:03;97873.09;;;26.91;45.44
4398;BME280;2213;49.720;7.296;2022-07-29T12:01:34;97871.63;;;26.98;45.27
4398;BME280;2213;49.720;7.296;2022-07-29T12:04:04;97872.72;;;26.97;45.07
4398;BME280;2213;49.720;7.296;2022-07-29T12:06:35;97876.31;;;26.93;45.15
4398;BME280;2213;49.720;7.296;2022-07-29T12:09:08;97870.03;;;26.97;45.48
4398;BME280;2213;49.720;7.296;2022-07-29T12:11:41;97861.78;;;27.08;45.61
4398;BME280;2213;49.720;7.296;2022-07-29T12:14:27;97859.00;;;27.13;45.00
4398;BME280;2213;49.720;7.296;2022-07-29T12:16:57;97862.19;;;27.15;44.83
4398;BME280;2213;49.720;7.296;2022-07-29T12:19:26;97860.41;;;27.24;44.96
4398;BME280;2213;49.720;7.296;2022-07-29T12:21:58;97859.41;;;27.33;45.69
4398;BME280;2213;49.720;7.296;2022-07-29T12:24:43;97857.38;;;27.39;45.26
4398;BME280;2213;49.720;7.296;2022-07-29T12:27:16;97851.72;;;27.40;44.56
4398;BME280;2213;49.720;7.296;2022-07-29T12:29:56;97850.06;;;27.44;44.75
4398;BME280;2213;49.720;7.296;2022-07-29T12:32:32;97848.84;;;27.50;44.71
4398;BME280;2213;49.720;7.296;2022-07-29T12:35:04;97847.03;;;27.60;44.59
4398;BME280;2213;49.720;7.296;2022-07-29T12:37:38;97842.97;;;27.62;43.34
4398;BME280;2213;49.720;7.296;2022-07-29T12:40:12;97849.91;;;27.63;42.90
4398;BME280;2213;49.720;7.296;2022-07-29T12:43:05;97856.63;;;27.52;42.71
4398;BME280;2213;49.720;7.296;2022-07-29T12:45:34;97857.78;;;27.60;42.52
4398;BME280;2213;49.720;7.296;2022-07-29T12:48:05;97853.81;;;27.57;42.17
4398;BME280;2213;49.720;7.296;2022-07-29T12:50:51;97855.22;;;27.55;42.00
4398;BME280;2213;49.720;7.296;2022-07-29T12:53:21;97859.94;;;27.49;40.98
4398;BME280;2213;49.720;7.296;2022-07-29T12:55:52;97860.59;;;27.55;40.70
4398;BME280;2213;49.720;7.296;2022-07-29T12:58:29;97855.03;;;27.51;40.16
4398;BME280;2213;49.720;7.296;2022-07-29T13:01:09;97861.28;;;27.60;40.78
4398;BME280;2213;49.720;7.296;2022-07-29T13:03:50;97843.16;;;27.66;40.38
4398;BME280;2213;49.720;7.296;2022-07-29T13:06:36;97850.25;;;27.62;40.73
4398;BME280;2213;49.720;7.296;2022-07-29T13:09:12;97847.44;;;27.67;40.71
4398;BME280;2213;49.720;7.296;2022-07-29T13:11:45;97845.84;;;27.66;41.01
4398;BME280;2213;49.720;7.296;2022-07-29T13:14:31;97856.69;;;27.61;39.85
4398;BME280;2213;49.720;7.296;2022-07-29T13:17:04;97851.84;;;27.63;39.31
4398;BME280;2213;49.720;7.296;2022-07-29T13:19:37;97855.38;;;27.72;39.31
4398;BME280;2213;49.720;7.296;2022-07-29T13:22:09;97859.59;;;27.64;38.89
4398;BME280;2213;49.720;7.296;2022-07-29T13:24:51;97867.75;;;27.73;39.33
4398;BME280;2213;49.720;7.296;2022-07-29T13:27:22;97861.56;;;27.72;38.69
4398;BME280;2213;49.720;7.296;2022-07-29T13:29:52;97868.91;;;27.80;39.42
4398;BME280;2213;49.720;7.296;2022-07-29T13:32:24;97865.22;;;27.90;41.48
4398;BME280;2213;49.720;7.296;2022-07-29T13:34:57;97860.00;;;27.93;42.67
4398;BME280;2213;49.720;7.296;2022-07-29T13:37:26;97866.72;;;27.82;42.94
4398;BME280;2213;49.720;7.296;2022-07-29T13:39:58;97858.13;;;27.80;43.88
4398;BME280;2213;49.720;7.296;2022-07-29T13:42:28;97862.00;;;27.88;44.08
4398;BME280;2213;49.720;7.296;2022-07-29T13:44:56;97868.88;;;27.94;44.05
4398;BME280;2213;49.720;7.296;2022-07-29T13:47:26;97865.06;;;27.95;43.53
4398;BME280;2213;49.720;7.296;2022-07-29T13:50:00;97865.56;;;28.11;40.14
4398;BME280;2213;49.720;7.296;2022-07-29T13:52:32;97859.56;;;28.14;39.35
4398;BME280;2213;49.720;7.296;2022-07-29T13:55:02;97853.75;;;28.20;38.83
4398;BME280;2213;49.720;7.296;2022-07-29T13:57:32;97854.66;;;28.16;37.36